createdAt,value
2023-01-13T00:00:27.475Z,4.63
2023-01-13T00:04:43.724Z,4.37
2023-01-13T00:09:00.126Z,4.51
2023-01-13T00:13:16.565Z,4.50
2023-01-13T00:17:32.787Z,4.49
2023-01-13T00:21:49.037Z,4.70
2023-01-13T00:26:10.750Z,4.60
2023-01-13T00:30:28.020Z,4.49
2023-01-13T00:34:44.408Z,4.53
2023-01-13T00:39:00.847Z,4.79
2023-01-13T00:43:23.021Z,4.92
2023-01-13T00:47:39.312Z,4.61
2023-01-13T00:51:55.619Z,4.72
2023-01-13T00:56:22.014Z,4.73
2023-01-13T01:00:40.778Z,4.58
2023-01-13T01:04:56.995Z,4.54
2023-01-13T01:09:15.879Z,4.76
2023-01-13T01:13:32.183Z,4.79
2023-01-13T01:17:48.391Z,4.67
2023-01-13T01:22:04.728Z,4.54
2023-01-13T01:26:26.017Z,4.69
2023-01-13T01:30:42.298Z,4.50
2023-01-13T01:34:58.591Z,4.75
2023-01-13T01:39:14.855Z,4.50
2023-01-13T01:43:59.587Z,4.69
2023-01-13T01:48:15.957Z,4.95
2023-01-13T01:52:36.723Z,5.00
2023-01-13T01:56:53.289Z,4.82
2023-01-13T02:01:10.247Z,4.95
2023-01-13T02:05:26.634Z,4.99
2023-01-13T02:09:42.975Z,5.12
2023-01-13T02:13:59.176Z,5.01
2023-01-13T02:18:26.430Z,5.16
2023-01-13T02:22:57.619Z,5.19
2023-01-13T02:27:27.412Z,5.01
2023-01-13T02:31:49.664Z,5.23
2023-01-13T02:36:28.747Z,5.05
2023-01-13T02:40:56.966Z,5.07
2023-01-13T02:45:21.395Z,5.01
2023-01-13T02:49:45.198Z,4.88
2023-01-13T02:54:07.199Z,4.69
2023-01-13T02:58:29.522Z,4.79
2023-01-13T03:02:45.760Z,4.64
2023-01-13T03:07:25.214Z,4.83
2023-01-13T03:12:04.483Z,4.80
2023-01-13T03:16:57.612Z,4.87
2023-01-13T03:21:21.058Z,4.84
2023-01-13T03:25:42.847Z,4.81
2023-01-13T03:30:01.764Z,4.98
2023-01-13T03:34:22.168Z,4.94
2023-01-13T03:38:44.540Z,4.92
2023-01-13T03:43:27.422Z,4.86
2023-01-13T03:47:51.354Z,4.69
2023-01-13T03:52:10.152Z,4.99
2023-01-13T03:56:36.478Z,4.91
2023-01-13T04:01:03.003Z,4.69
2023-01-13T04:05:19.783Z,4.96
2023-01-13T04:09:41.665Z,4.64
2023-01-13T04:13:58.896Z,4.37
2023-01-13T04:18:19.092Z,4.85
2023-01-13T04:22:35.274Z,4.88
2023-01-13T04:26:51.499Z,4.81
2023-01-13T04:31:07.740Z,4.74
2023-01-13T04:35:23.993Z,4.92
2023-01-13T04:39:40.135Z,4.88
2023-01-13T04:43:56.365Z,4.68
2023-01-13T04:48:13.113Z,4.62
2023-01-13T04:52:29.254Z,4.66
2023-01-13T04:56:45.564Z,4.89
2023-01-13T05:01:01.764Z,4.64
2023-01-13T05:05:18.287Z,4.37
2023-01-13T05:09:34.602Z,4.68
2023-01-13T05:14:09.545Z,4.93
2023-01-13T05:18:26.202Z,4.57
2023-01-13T05:23:00.989Z,4.96
2023-01-13T05:27:17.142Z,4.75
2023-01-13T05:31:33.387Z,4.95
2023-01-13T05:35:49.950Z,4.80
2023-01-13T05:40:25.401Z,4.74
2023-01-13T05:44:41.627Z,4.78
2023-01-13T05:48:59.039Z,4.62
2023-01-13T05:53:15.511Z,4.79
2023-01-13T05:57:31.760Z,4.78
2023-01-13T06:01:47.872Z,4.86
2023-01-13T06:06:04.758Z,4.55
2023-01-13T06:10:20.920Z,4.51
2023-01-13T06:14:42.887Z,4.81
2023-01-13T06:18:59.107Z,4.82
2023-01-13T06:23:15.421Z,4.85
2023-01-13T06:27:31.607Z,4.78
2023-01-13T06:31:47.950Z,4.84
2023-01-13T06:36:11.330Z,4.99
2023-01-13T06:40:27.463Z,4.64
2023-01-13T06:44:44.565Z,4.89
2023-01-13T06:49:00.760Z,4.86
2023-01-13T06:53:17.066Z,4.59
2023-01-13T06:57:33.219Z,4.73
2023-01-13T07:01:49.631Z,4.78
2023-01-13T07:06:06.327Z,4.75
2023-01-13T07:10:22.641Z,4.72
2023-01-13T07:14:57.292Z,4.96
2023-01-13T07:19:13.508Z,4.96
2023-01-13T07:23:31.824Z,5.02
2023-01-13T07:27:48.213Z,4.83
2023-01-13T07:32:04.743Z,4.98
2023-01-13T07:36:22.132Z,4.68
2023-01-13T07:40:40.035Z,4.81
2023-01-13T07:44:56.232Z,4.88
2023-01-13T07:49:13.328Z,4.92
2023-01-13T07:53:29.547Z,5.15
2023-01-13T07:57:45.843Z,4.79
2023-01-13T08:02:02.219Z,4.74
2023-01-13T08:06:19.021Z,4.96
2023-01-13T08:10:35.609Z,4.78
2023-01-13T08:14:53.079Z,4.72
2023-01-13T08:19:09.211Z,4.99
2023-01-13T08:23:25.431Z,4.84
2023-01-13T08:27:41.755Z,5.00
2023-01-13T08:31:58.069Z,5.16
2023-01-13T08:36:14.401Z,5.24
2023-01-13T08:40:30.596Z,5.21
2023-01-13T08:44:46.778Z,5.53
2023-01-13T08:49:03.368Z,5.24
2023-01-13T08:53:19.885Z,5.11
2023-01-13T08:57:36.337Z,5.30
2023-01-13T09:01:52.981Z,5.25
2023-01-13T09:06:09.590Z,5.68
2023-01-13T09:10:25.947Z,5.52
2023-01-13T09:14:42.146Z,5.70
2023-01-13T09:18:58.334Z,5.76
2023-01-13T09:23:14.581Z,5.99
2023-01-13T09:27:30.847Z,6.09
2023-01-13T09:31:47.345Z,5.94
2023-01-13T09:36:03.540Z,6.07
2023-01-13T09:40:22.890Z,6.05
2023-01-13T09:44:58.172Z,5.69
2023-01-13T09:49:27.355Z,5.96
2023-01-13T09:53:56.265Z,6.30
2023-01-13T09:58:19.933Z,6.54
2023-01-13T10:02:59.512Z,6.68
2023-01-13T10:07:15.762Z,6.81
2023-01-13T10:11:55.607Z,6.50
2023-01-13T10:16:11.748Z,6.64
2023-01-13T10:20:40.722Z,6.49
2023-01-13T10:25:20.646Z,6.70
2023-01-13T10:29:37.200Z,6.43
2023-01-13T10:34:06.531Z,6.33
2023-01-13T10:38:24.171Z,6.52
2023-01-13T10:42:41.764Z,6.72
2023-01-13T10:46:59.699Z,6.27
2023-01-13T10:51:28.750Z,6.39
2023-01-13T10:55:59.890Z,6.60
2023-01-13T11:00:36.828Z,6.89
2023-01-13T11:05:09.117Z,6.89
2023-01-13T11:09:26.757Z,6.75
2023-01-13T11:14:03.949Z,6.79
2023-01-13T11:18:25.647Z,7.23
2023-01-13T11:22:55.069Z,7.14
2023-01-13T11:27:26.288Z,7.53
2023-01-13T11:31:48.447Z,7.68
2023-01-13T11:36:12.027Z,7.60
2023-01-13T11:40:45.399Z,7.68
2023-01-13T11:45:21.548Z,7.51
2023-01-13T11:49:38.895Z,7.62
2023-01-13T11:54:02.272Z,7.53
2023-01-13T11:58:29.003Z,7.89
2023-01-13T12:03:13.254Z,8.13
2023-01-13T12:08:08.894Z,8.04
2023-01-13T12:12:47.635Z,7.99
2023-01-13T12:17:08.534Z,7.93
2023-01-13T12:21:38.687Z,7.85
2023-01-13T12:26:03.653Z,7.68
2023-01-13T12:30:26.303Z,7.66
2023-01-13T12:35:07.961Z,7.53
2023-01-13T12:39:53.809Z,7.66
2023-01-13T12:44:22.435Z,7.84
2023-01-13T12:48:59.437Z,7.90
2023-01-13T12:53:34.052Z,8.02
2023-01-13T12:58:17.785Z,7.98
2023-01-13T13:02:38.313Z,8.22
2023-01-13T13:07:07.295Z,8.52
2023-01-13T13:12:03.594Z,8.35
2023-01-13T13:16:27.640Z,7.58
2023-01-13T13:20:54.272Z,7.46
2023-01-13T13:25:25.953Z,7.53
2023-01-13T13:29:50.907Z,7.19
2023-01-13T13:34:34.687Z,7.25
2023-01-13T13:39:15.455Z,7.40
2023-01-13T13:44:00.529Z,7.22
2023-01-13T13:48:28.251Z,7.01
2023-01-13T13:52:52.051Z,7.10
2023-01-13T13:57:39.840Z,7.12
2023-01-13T14:02:02.328Z,7.05
2023-01-13T14:06:24.599Z,7.07
2023-01-13T14:10:43.376Z,7.05
2023-01-13T14:15:00.154Z,6.73
2023-01-13T14:19:47.876Z,6.68
2023-01-13T14:24:14.367Z,6.62
2023-01-13T14:28:40.921Z,6.48
2023-01-13T14:32:57.419Z,6.32
2023-01-13T14:37:29.525Z,6.36
2023-01-13T14:41:51.031Z,6.46
2023-01-13T14:46:09.283Z,6.43
2023-01-13T14:50:33.620Z,6.47
2023-01-13T14:54:53.644Z,6.34
2023-01-13T14:59:33.984Z,6.45
2023-01-13T15:03:51.259Z,6.45
2023-01-13T15:08:17.841Z,6.19
2023-01-13T15:12:41.122Z,6.31
2023-01-13T15:16:57.702Z,6.40
2023-01-13T15:21:16.156Z,6.34
2023-01-13T15:25:36.861Z,6.30
2023-01-13T15:29:53.156Z,6.16
2023-01-13T15:34:09.542Z,6.29
2023-01-13T15:38:26.807Z,6.29
2023-01-13T15:43:01.492Z,6.26
2023-01-13T15:47:18.195Z,6.07
2023-01-13T15:51:34.627Z,6.21
2023-01-13T15:55:53.841Z,6.23
2023-01-13T16:00:18.208Z,6.34
2023-01-13T16:04:34.442Z,6.18
2023-01-13T16:08:50.565Z,6.26
2023-01-13T16:13:06.900Z,6.22
2023-01-13T16:17:25.353Z,6.19
2023-01-13T16:21:43.638Z,6.24
2023-01-13T16:26:00.200Z,6.20
2023-01-13T16:30:23.966Z,6.26
2023-01-13T16:34:40.670Z,6.12
2023-01-13T16:38:57.284Z,6.17
2023-01-13T16:43:14.432Z,5.94
2023-01-13T16:47:30.597Z,6.18
2023-01-13T16:51:46.818Z,6.04
2023-01-13T16:56:03.029Z,6.11
2023-01-13T17:00:21.374Z,6.05
2023-01-13T17:04:37.691Z,6.09
2023-01-13T17:08:54.096Z,6.25
2023-01-13T17:13:16.367Z,6.49
2023-01-13T17:17:33.661Z,6.35
2023-01-13T17:21:53.557Z,6.32
2023-01-13T17:26:27.269Z,6.30
2023-01-13T17:30:44.956Z,6.02
2023-01-13T17:35:03.094Z,6.36
2023-01-13T17:39:29.243Z,6.43
2023-01-13T17:43:45.475Z,6.19
2023-01-13T17:48:02.250Z,6.26
2023-01-13T17:52:18.832Z,6.39
2023-01-13T17:56:36.832Z,6.24
2023-01-13T18:00:53.123Z,6.27
2023-01-13T18:05:10.265Z,6.49
2023-01-13T18:09:26.909Z,6.35
2023-01-13T18:13:43.621Z,6.47
2023-01-13T18:17:59.941Z,6.40
2023-01-13T18:22:34.830Z,6.31
2023-01-13T18:27:09.420Z,6.31
2023-01-13T18:31:27.268Z,6.34
2023-01-13T18:35:43.953Z,6.47
2023-01-13T18:40:00.164Z,6.35
2023-01-13T18:44:16.503Z,6.31
2023-01-13T18:48:32.902Z,6.57
2023-01-13T18:52:49.168Z,6.81
2023-01-13T18:57:05.423Z,6.82
2023-01-13T19:01:26.179Z,6.67
2023-01-13T19:05:43.140Z,6.73
2023-01-13T19:10:02.324Z,6.81
2023-01-13T19:14:38.416Z,6.63
2023-01-13T19:18:54.682Z,6.37
2023-01-13T19:23:11.941Z,6.48
2023-01-13T19:27:28.752Z,6.15
2023-01-13T19:31:44.972Z,6.36
2023-01-13T19:36:03.576Z,6.37
2023-01-13T19:40:20.087Z,6.58
2023-01-13T19:44:54.854Z,6.53
2023-01-13T19:49:11.531Z,6.44
2023-01-13T19:53:28.825Z,6.45
2023-01-13T19:57:44.987Z,6.11
2023-01-13T20:02:04.108Z,6.31
2023-01-13T20:06:20.389Z,6.52
2023-01-13T20:10:41.691Z,6.68
2023-01-13T20:14:58.277Z,6.73
2023-01-13T20:19:14.508Z,6.78
2023-01-13T20:23:31.027Z,6.74
2023-01-13T20:27:48.139Z,6.79
2023-01-13T20:32:04.586Z,6.70
2023-01-13T20:36:37.106Z,6.86
2023-01-13T20:41:23.235Z,6.69
2023-01-13T20:45:40.674Z,6.92
2023-01-13T20:49:56.928Z,6.81
2023-01-13T20:54:13.264Z,6.72
2023-01-13T20:58:29.539Z,6.53
2023-01-13T21:02:45.770Z,6.81
2023-01-13T21:07:01.978Z,6.67
2023-01-13T21:11:39.359Z,6.68
2023-01-13T21:15:55.759Z,6.75
2023-01-13T21:20:14.249Z,6.10
2023-01-13T21:24:30.543Z,6.25
2023-01-13T21:28:47.127Z,5.56
2023-01-13T21:33:06.593Z,6.01
2023-01-13T21:37:27.842Z,6.38
2023-01-13T21:42:02.784Z,6.44
2023-01-13T21:46:37.466Z,6.47
2023-01-13T21:50:53.630Z,5.89
2023-01-13T21:55:20.107Z,6.29
2023-01-13T21:59:36.225Z,6.32
2023-01-13T22:04:10.706Z,6.17
2023-01-13T22:08:26.977Z,6.26
2023-01-13T22:12:46.121Z,6.63
2023-01-13T22:17:04.097Z,6.75
2023-01-13T22:21:20.344Z,6.90
2023-01-13T22:25:36.479Z,6.76
2023-01-13T22:29:53.272Z,6.95
2023-01-13T22:34:11.945Z,7.07
2023-01-13T22:38:28.173Z,7.03
2023-01-13T22:42:44.360Z,7.30
2023-01-13T22:47:00.950Z,7.05
2023-01-13T22:51:18.898Z,7.10
2023-01-13T22:55:35.057Z,7.27
2023-01-13T22:59:51.261Z,7.30
2023-01-13T23:04:07.563Z,7.17
2023-01-13T23:08:23.954Z,6.94
2023-01-13T23:12:40.095Z,6.80
2023-01-13T23:16:56.388Z,7.40
2023-01-13T23:21:15.843Z,7.19
2023-01-13T23:25:32.189Z,7.22
2023-01-13T23:29:49.256Z,6.93
2023-01-13T23:34:05.500Z,6.93
2023-01-13T23:38:21.647Z,7.29
2023-01-13T23:42:37.807Z,7.34
2023-01-13T23:46:53.911Z,7.23
2023-01-13T23:51:12.644Z,7.10
2023-01-13T23:55:28.970Z,6.87
2023-01-13T23:59:45.171Z,7.03
